Harding, Illinois
Current Conditions -  °F | °C
As of 1:55 AM on Thursday 23 Oct 2014 (Local Time) from KVYS Reporting Station
Clear Clear  
Wind Chill: 35°   Ceiling: Unl
Heat Index: 40°   Visibility: 10mi
Dew Point: 36°   Wind: 6mph
Humidity: 86%   Direction: 130°SE
Pressure: 30.23"   Gusts: NA
Location:  41.5869°N, 88.887°W
Report Text: KVYS 230655Z AUTO 13005KT 10SM CLR 04/02 A3023 RMK AO2 T00420020
Loading
Personal Weather Stations






























Interactive Weather Map
Tropical Storm Tracking
New forecast layout! Learn more

10-Day Weather Forecast

Advertisements
Track Severe Weather on mobile